Albaida, Spain
Current Conditions -  °F | °C
As of 6:00 AM on Sunday 23 Nov 2014 (Local Time) from LEAL Reporting Station
Few Clouds Few Clouds  
Wind Chill: 66°   Ceiling: Unl
Heat Index: 66°   Visibility: 6mi
Dew Point: 57°   Wind: 8mph
Humidity: 73%   Direction: 60°ENE
Pressure: 29.94"   Gusts: NA
Location:  38.84°N, 0.52°W
Report Text: LEAL 230500Z 06007KT 040V100 9999 FEW040 19/14 Q1014 NOSIG
Loading
Personal Weather Stations






























Interactive Weather Map New forecast layout! Learn more

10-Day Weather Forecast

Advertisements
Track Severe Weather on mobile